• Join FlightAware (Why Join?)
  • Login
  • US Flag 
09:00AM EST


 

Airport Tracker/Info


-or-


 

Live Flight TrackerFlight Track Log ✈ N701MD ✈ 09-Jun-2013 ✈ 44TS - KFTW

Flight Track Log - Related Links

Times and Time Zones

All times are in EDT time to prevent confusion due to time zone crossing. See the N701MD flight status page for this flight to view local times or setup timezone preferences in your user account.

Time Position Orientation Groundspeed Altitude Reporting Facility
EDT Latitude Longitude Course Direction KTS MPH feet Rate Location/Type
04:49PM 30.7583 -98.7753 28° Northeast 96 110 4,600  Level Houston Center
04:50PM 30.7914 -98.7536 29° Northeast 134 154 5,200 420 Climbing Houston Center
04:51PM 30.8225 -98.7336 29° Northeast 130 150 5,500 420 Climbing Houston Center
04:52PM 30.7773 -98.6821 30° Northeast  Level FlightAware Approximate
04:52PM 30.8564 -98.7133 27° Northeast 130 150 6,100  Level Houston Center
04:53PM 30.8132 -98.6596 28° Northeast  Level FlightAware Approximate
04:53PM 30.8889 -98.6919 29° Northeast 132 152 6,600  Level Houston Center
04:54PM 30.8491 -98.6372 28° Northeast  Level FlightAware Approximate
04:54PM 30.9206 -98.6678 33° Northeast 134 154 7,100  Level Houston Center
04:55PM 30.9592 -98.6372 34° Northeast 141 162 7,000 -60 Descending Houston Center
04:56PM 30.9936 -98.6081 36° Northeast 146 168 7,000  Level Houston Center
04:57PM 31.0286 -98.5828 32° Northeast 146 168 7,000  Level Houston Center
04:58PM 31.0653 -98.5594 29° Northeast 146 168 7,000  Level Houston Center
04:59PM 31.0994 -98.5378 29° Northeast 144 166 7,100  Climbing Houston Center
05:00PM 31.1339 -98.5158 29° Northeast 141 162 7,000  Descending Houston Center
05:01PM 31.1694 -98.4917 30° Northeast 143 165 7,100  Climbing Houston Center
05:02PM 31.2094 -98.4639 31° Northeast 143 165 7,100  Level Houston Center
05:03PM 31.2450 -98.4422 28° Northeast 143 165 7,100  Level Houston Center
05:04PM 31.2803 -98.4175 31° Northeast 144 166 7,100  Level Houston Center
05:05PM 31.3167 -98.3931 30° Northeast 146 168 7,100  Level Houston Center
05:06PM 31.3411 -98.3742 33° Northeast 148 170 7,100  Level Fort Worth Center
05:07PM 31.3747 -98.3525 29° Northeast 146 168 7,100 -60 Level Fort Worth Center
05:08PM 31.4083 -98.3333 26° Northeast 142 163 7,000  Descending Fort Worth Center
05:09PM 31.4461 -98.3069 31° Northeast 146 168 7,100  Climbing Fort Worth Center
05:10PM 31.4794 -98.2853 29° Northeast 147 169 7,100 -60 Level Fort Worth Center
05:11PM 31.5194 -98.2589 29° Northeast 154 177 7,000 -60 Descending Fort Worth Center
05:12PM 31.5572 -98.2325 31° Northeast 151 174 7,000  Level Fort Worth Center
05:13PM 31.5908 -98.2083 31° Northeast 147 169 7,000  Level Fort Worth Center
05:14PM 31.6264 -98.1819 32° Northeast 161 185 7,000  Level Fort Worth Center
05:15PM 31.6619 -98.1578 30° Northeast 161 185 7,000  Level Fort Worth Center
05:16PM 31.6956 -98.1336 31° Northeast 150 173 7,000  Level Fort Worth Center
05:17PM 31.7333 -98.1094 29° Northeast 138 159 7,000  Level Fort Worth Center
05:18PM 31.7689 -98.0903 25° Northeast 138 159 7,000  Level Fort Worth Center
05:19PM 31.8044 -98.0733 22° Northeast 133 153 7,000  Level Fort Worth Center
05:20PM 31.8422 -98.0589 18° North 126 145 7,000  Level Fort Worth Center
05:21PM 31.8778 -98.0372 27° Northeast 142 163 7,000  Level Fort Worth Center
05:22PM 31.9111 -98.0228 20° North 133 153 7,000  Level Fort Worth Center
05:23PM 31.9467 -97.9986 30° Northeast 133 153 7,100  Climbing Fort Worth Center
05:24PM 31.9803 -97.9842 20° North 133 153 7,000 -180 Descending Fort Worth Center
05:25PM 32.0158 -97.9647 25° Northeast 133 153 6,800 -360 Descending Fort Worth Center
05:26PM 32.0556 -97.9403 28° Northeast 138 159 6,300 -420 Descending Fort Worth Center
05:27PM 32.0933 -97.9211 23° Northeast 138 159 6,000 -540 Descending Fort Worth Center
05:28PM 32.1372 -97.9089 13° North 138 159 5,300 -480 Descending Fort Worth Center
05:29PM 32.1789 -97.9167 351° North 152 175 5,100 -120 Descending Fort Worth Center
05:30PM 32.2247 -97.9192 357° North 152 175 5,100  Level Fort Worth Center
05:31PM 32.2625 -97.9219 356° North 152 175 5,100 -60 Level Fort Worth Center
05:32PM 32.3042 -97.9247 357° North 142 163 5,000 -60 Descending Fort Worth Center
05:33PM 32.3397 -97.9272 357° North 142 163 5,000  Level Fort Worth Center
05:34PM 32.3689 -97.8956 43° Northeast 121 139 5,100  Climbing Fort Worth Center
05:35PM 32.3858 -97.8561 63° Northeast 137 158 5,000 -60 Descending Fort Worth Center
05:36PM 32.4047 -97.8144 62° Northeast 143 165 5,000 -240 Level Fort Worth Center
05:37PM 32.4319 -97.7753 51° Northeast 143 165 4,600 -540 Descending Fort Worth Center
05:38PM 32.4633 -97.7286 51° Northeast 153 176 4,000 -300 Descending Fort Worth Center
05:39PM 32.4928 -97.6992 40° Northeast 153 176 4,000 -240 Level Fort Worth Center
05:40PM 32.5261 -97.6647 41° Northeast 147 169 3,600 -420 Descending Fort Worth Center
05:41PM 32.5597 -97.6328 39° Northeast 153 176 3,200 -300 Descending Fort Worth Center
05:42PM 32.5953 -97.5958 41° Northeast 159 183 3,000 -360 Descending Fort Worth Center
05:43PM 32.6225 -97.5639 45° Northeast 159 183 2,500 -300 Descending Fort Worth Center
05:44PM 32.6558 -97.5269 43° Northeast 154 177 2,500 -60 Level Fort Worth Center
05:45PM 32.6789 -97.4925 52° Northeast 143 165 2,400 -180 Descending Fort Worth Center
05:46PM 32.7061 -97.4506 52° Northeast 138 159 2,200 -300 Descending Fort Worth Center
05:47PM 32.7311 -97.4183 47° Northeast 138 159 1,900 -360 Descending Fort Worth Center
05:49PM 32.7833 -97.3500 48° Northeast 156 180 1,400 -360 Descending Dallas / Fort Worth TRACON
05:51PM 32.8167 -97.3500 40° Northeast  Level FlightAware Approximate
05:58PM 32.8198 -97.3624 40° Northeast  Level Estimated